Time;durP1;ratioP1;P1;durP2;ratioP2;P2;SDS_P1;SDS_P2;PMS_P1;PMS_P2;Temp;Humidity;BMP_temperature;BMP_pressure;BME280_temperature;BME280_humidity;BME280_pressure;Samples;Min_cycle;Max_cycle;Signal;HPM_P1;HPM_P2
2023/05/03 00:00:06;;;;;;;6.90;3.77;;;;;;;10.15;100.00;98974.72;5051065;28;20234;-84
2023/05/03 00:02:37;;;;;;;5.03;3.47;;;;;;;10.24;100.00;98968.94;5051524;28;20233;-84
2023/05/03 00:05:05;;;;;;;5.43;3.53;;;;;;;10.18;100.00;98972.78;5051554;28;20738;-84
2023/05/03 00:07:31;;;;;;;6.03;3.87;;;;;;;10.19;100.00;98968.31;5051767;28;20215;-84
2023/05/03 00:09:58;;;;;;;7.33;4.40;;;;;;;10.11;100.00;98971.41;5051421;28;20268;-84
2023/05/03 00:12:24;;;;;;;5.80;3.97;;;;;;;10.05;100.00;98984.06;5051723;28;20205;-84
2023/05/03 00:14:51;;;;;;;4.83;3.80;;;;;;;9.96;100.00;98976.59;5051639;28;20680;-84
2023/05/03 00:17:18;;;;;;;5.77;3.90;;;;;;;9.93;100.00;98979.41;5051774;28;20209;-84
2023/05/03 00:19:46;;;;;;;6.17;4.30;;;;;;;9.81;100.00;98980.94;5051552;28;20682;-85
2023/05/03 00:22:13;;;;;;;7.40;3.90;;;;;;;9.65;100.00;98984.41;5051662;28;20228;-84
2023/05/03 00:24:39;;;;;;;5.77;3.90;;;;;;;9.59;100.00;98980.31;5055621;28;20679;-84
2023/05/03 00:27:06;;;;;;;6.97;4.47;;;;;;;9.54;100.00;98981.50;5055614;28;20211;-84
2023/05/03 00:29:32;;;;;;;5.53;3.80;;;;;;;9.51;100.00;98976.38;5055124;28;20699;-84
2023/05/03 00:32:00;;;;;;;5.57;4.07;;;;;;;9.49;100.00;98988.81;5055524;28;20208;-84
2023/05/03 00:34:27;;;;;;;5.40;4.07;;;;;;;9.39;100.00;98982.28;5055290;28;20221;-84
2023/05/03 00:36:55;;;;;;;9.87;4.30;;;;;;;9.41;100.00;98980.41;5055519;28;20223;-84
2023/05/03 00:39:21;;;;;;;6.07;4.60;;;;;;;9.37;100.00;98984.16;5054424;28;20654;-85
2023/05/03 00:41:48;;;;;;;5.03;3.60;;;;;;;9.37;100.00;98976.25;5055454;28;20236;-84
2023/05/03 00:44:15;;;;;;;5.27;4.27;;;;;;;9.25;100.00;98982.97;5055165;28;20212;-84
2023/05/03 00:46:41;;;;;;;6.23;4.30;;;;;;;9.17;100.00;98976.41;5055006;28;20215;-85
2023/05/03 00:49:08;;;;;;;5.57;4.40;;;;;;;9.10;100.00;98975.84;5054733;28;20212;-84
2023/05/03 00:51:35;;;;;;;7.00;4.67;;;;;;;9.03;100.00;98974.44;5055279;28;20688;-84
2023/05/03 00:54:03;;;;;;;6.67;4.97;;;;;;;8.98;100.00;98965.91;5054794;28;20217;-84
2023/05/03 00:56:30;;;;;;;6.43;4.53;;;;;;;8.96;100.00;98961.63;5055283;28;20591;-84
2023/05/03 00:58:57;;;;;;;6.67;5.20;;;;;;;8.91;100.00;98964.50;5054545;28;20212;-84
2023/05/03 01:01:24;;;;;;;9.63;4.73;;;;;;;8.97;100.00;98965.97;5052221;28;20234;-84
2023/05/03 01:03:50;;;;;;;6.23;4.63;;;;;;;8.98;100.00;98965.03;5052397;28;20242;-84
2023/05/03 01:06:30;;;;;;;8.30;5.07;;;;;;;8.97;100.00;98968.59;5052429;28;20215;-84
2023/05/03 01:09:01;;;;;;;6.73;4.20;;;;;;;8.90;100.00;98961.94;5053109;28;20687;-85
2023/05/03 01:11:37;;;;;;;6.37;4.73;;;;;;;8.82;100.00;98961.47;5054659;28;20227;-85
2023/05/03 01:14:10;;;;;;;6.33;4.87;;;;;;;8.80;100.00;98965.94;5054819;28;20297;-84
2023/05/03 01:16:41;;;;;;;7.93;4.90;;;;;;;8.78;100.00;98962.53;5054781;28;20763;-84
2023/05/03 01:19:19;;;;;;;7.57;5.20;;;;;;;8.77;100.00;98968.75;5054426;28;20571;-84
2023/05/03 01:21:52;;;;;;;7.03;5.00;;;;;;;8.71;100.00;98961.13;5054519;28;20212;-84
2023/05/03 01:24:23;;;;;;;5.30;4.30;;;;;;;8.68;100.00;98969.16;5054608;28;20217;-85
2023/05/03 01:26:51;;;;;;;8.17;5.10;;;;;;;8.66;100.00;98957.88;5054678;28;20249;-84
2023/05/03 01:29:18;;;;;;;6.87;5.07;;;;;;;8.68;100.00;98953.34;5053920;28;20213;-84
2023/05/03 01:31:53;;;;;;;7.23;5.43;;;;;;;8.73;100.00;98954.00;5054257;28;20613;-84
2023/05/03 01:34:28;;;;;;;6.07;5.00;;;;;;;8.73;100.00;98946.09;5053350;28;20210;-84
2023/05/03 01:37:02;;;;;;;8.40;5.43;;;;;;;8.79;100.00;98943.16;5054253;28;20210;-84
2023/05/03 01:39:34;;;;;;;6.87;5.10;;;;;;;8.88;100.00;98942.72;5053975;28;20749;-84
2023/05/03 01:42:04;;;;;;;5.70;4.90;;;;;;;8.98;100.00;98938.66;5054290;28;20587;-85
2023/05/03 01:44:32;;;;;;;6.93;5.57;;;;;;;8.99;100.00;98940.41;5054141;28;20635;-84
2023/05/03 01:46:59;;;;;;;5.90;5.20;;;;;;;9.07;100.00;98941.69;5054142;28;20226;-84
2023/05/03 01:49:25;;;;;;;9.23;5.67;;;;;;;9.10;100.00;98938.06;5053897;28;20287;-84
2023/05/03 01:51:52;;;;;;;9.40;5.20;;;;;;;9.16;100.00;98937.75;5054069;28;20219;-85
2023/05/03 01:54:18;;;;;;;7.03;4.60;;;;;;;9.19;100.00;98927.06;5054045;28;20206;-85
2023/05/03 01:56:45;;;;;;;7.40;5.50;;;;;;;9.21;100.00;98930.47;5053916;28;20227;-84
2023/05/03 01:59:13;;;;;;;6.80;5.33;;;;;;;9.21;100.00;98928.69;5054027;28;20288;-85
2023/05/03 02:01:40;;;;;;;9.50;5.43;;;;;;;9.20;100.00;98934.91;5053647;28;20250;-84
2023/05/03 02:04:06;;;;;;;7.13;5.40;;;;;;;9.30;100.00;98938.75;5053585;28;20243;-85
2023/05/03 02:06:32;;;;;;;7.07;5.40;;;;;;;9.24;100.00;98940.88;5053494;28;20635;-85
2023/05/03 02:08:59;;;;;;;6.20;4.63;;;;;;;9.19;100.00;98932.34;5053719;28;20216;-85
2023/05/03 02:11:25;;;;;;;7.13;4.93;;;;;;;9.17;100.00;98944.75;5053446;28;20240;-84
2023/05/03 02:13:52;;;;;;;5.93;4.73;;;;;;;9.14;100.00;98934.34;5053502;28;20217;-84
2023/05/03 02:16:20;;;;;;;7.77;5.33;;;;;;;9.19;100.00;98942.88;5053556;28;20669;-84
2023/05/03 02:18:47;;;;;;;9.03;5.50;;;;;;;9.22;100.00;98942.72;5053233;28;20269;-84
2023/05/03 02:21:13;;;;;;;6.67;5.00;;;;;;;9.06;100.00;98944.44;5052940;28;20271;-84
2023/05/03 02:23:40;;;;;;;7.97;6.00;;;;;;;9.05;100.00;98938.28;5053034;28;20233;-84
2023/05/03 02:26:07;;;;;;;8.37;5.20;;;;;;;9.14;100.00;98944.91;5053105;28;20637;-84
2023/05/03 02:28:34;;;;;;;8.17;5.50;;;;;;;9.05;100.00;98938.28;5053029;28;20223;-84
2023/05/03 02:31:00;;;;;;;8.07;5.53;;;;;;;9.12;100.00;98936.22;5052627;28;20252;-84
2023/05/03 02:33:28;;;;;;;7.73;5.40;;;;;;;9.06;100.00;98932.09;5052857;28;20212;-84
2023/05/03 02:35:54;;;;;;;7.60;5.67;;;;;;;9.08;100.00;98932.88;5053042;28;20211;-84
2023/05/03 02:38:21;;;;;;;8.50;5.73;;;;;;;9.00;100.00;98935.03;5053005;28;20221;-84
2023/05/03 02:40:47;;;;;;;8.23;5.80;;;;;;;8.86;100.00;98934.00;5052759;28;20233;-84
2023/05/03 02:43:14;;;;;;;11.30;6.13;;;;;;;8.78;100.00;98936.19;5052692;28;20228;-85
2023/05/03 02:45:40;;;;;;;9.20;5.83;;;;;;;8.71;100.00;98937.41;5052571;28;20211;-84
2023/05/03 02:48:07;;;;;;;7.40;6.13;;;;;;;8.71;100.00;98935.66;5052759;28;20582;-84
2023/05/03 02:50:35;;;;;;;8.10;6.67;;;;;;;8.71;100.00;98929.50;5071614;22;20238;-76
2023/05/03 02:53:03;;;;;;;8.53;6.40;;;;;;;8.57;100.00;98931.97;5072303;28;20551;-75
2023/05/03 02:55:29;;;;;;;9.90;6.43;;;;;;;8.45;100.00;98932.56;5072169;28;20208;-76
2023/05/03 02:57:56;;;;;;;11.63;6.50;;;;;;;8.43;100.00;98930.00;5071994;28;20214;-78
2023/05/03 03:00:22;;;;;;;11.10;6.43;;;;;;;8.34;100.00;98932.22;5071513;28;20226;-76
2023/05/03 03:02:49;;;;;;;11.63;7.23;;;;;;;8.31;100.00;98934.97;5071895;28;20235;-76
2023/05/03 03:05:16;;;;;;;9.83;6.47;;;;;;;8.15;100.00;98936.63;5071912;28;20689;-76
2023/05/03 03:07:44;;;;;;;9.40;6.10;;;;;;;8.08;100.00;98932.56;5071924;28;20214;-76
2023/05/03 03:10:11;;;;;;;9.40;6.17;;;;;;;7.93;100.00;98933.25;5071480;28;20302;-76
2023/05/03 03:12:38;;;;;;;11.50;6.27;;;;;;;7.97;100.00;98930.41;5071685;28;20235;-76
2023/05/03 03:15:05;;;;;;;10.73;7.13;;;;;;;7.95;100.00;98928.81;5071370;28;20208;-77
2023/05/03 03:17:32;;;;;;;11.07;7.00;;;;;;;7.91;100.00;98935.13;5071700;28;20213;-76
2023/05/03 03:20:00;;;;;;;10.73;7.43;;;;;;;7.89;100.00;98932.53;5071139;28;20217;-76
2023/05/03 03:22:31;;;;;;;10.50;6.67;;;;;;;7.90;100.00;98938.69;5071371;28;20619;-76
2023/05/03 03:24:59;;;;;;;10.53;7.03;;;;;;;7.87;100.00;98941.44;5071527;28;20213;-76
2023/05/03 03:27:26;;;;;;;10.73;6.67;;;;;;;7.80;100.00;98937.38;5071474;28;20207;-76
2023/05/03 03:29:52;;;;;;;12.87;7.63;;;;;;;7.78;100.00;98933.97;5071318;28;20205;-76
2023/05/03 03:32:18;;;;;;;10.70;6.90;;;;;;;7.66;100.00;98934.53;5071667;28;20211;-76
2023/05/03 03:34:45;;;;;;;11.63;7.70;;;;;;;7.66;100.00;98934.53;5071759;28;20217;-77
2023/05/03 03:37:11;;;;;;;11.47;7.43;;;;;;;7.64;100.00;98937.22;5071355;28;20214;-77
2023/05/03 03:39:38;;;;;;;13.17;7.30;;;;;;;7.66;100.00;98939.78;5071114;28;20212;-77
2023/05/03 03:42:07;;;;;;;14.17;8.13;;;;;;;7.61;100.00;98934.75;5071223;28;20321;-77
2023/05/03 03:44:33;;;;;;;12.63;7.33;;;;;;;7.47;100.00;98939.72;5071446;28;20233;-78
2023/05/03 03:47:00;;;;;;;12.73;7.33;;;;;;;7.47;100.00;98947.63;5071462;28;20210;-77
2023/05/03 03:49:26;;;;;;;11.97;7.63;;;;;;;7.43;100.00;98948.69;5070779;28;20215;-77
2023/05/03 03:51:52;;;;;;;12.37;7.47;;;;;;;7.43;100.00;98953.97;5070969;28;20242;-77
2023/05/03 03:54:19;;;;;;;15.23;8.27;;;;;;;7.42;100.00;98967.16;5071017;28;20249;-77
2023/05/03 03:56:45;;;;;;;12.43;8.33;;;;;;;7.30;100.00;98955.38;5071373;28;20219;-77
2023/05/03 03:59:13;;;;;;;13.37;8.60;;;;;;;7.21;100.00;98954.94;5070439;28;20218;-77
2023/05/03 04:01:40;;;;;;;13.07;8.73;;;;;;;7.19;100.00;98954.16;5071100;28;20238;-78
2023/05/03 04:04:06;;;;;;;10.93;7.70;;;;;;;7.27;100.00;98957.28;5070973;28;20234;-78
2023/05/03 04:06:33;;;;;;;13.90;9.23;;;;;;;7.28;100.00;98956.41;5071344;28;20336;-78
2023/05/03 04:08:59;;;;;;;12.47;8.10;;;;;;;7.29;100.00;98960.75;5070899;28;20697;-78
2023/05/03 04:11:26;;;;;;;12.20;8.23;;;;;;;7.30;100.00;98960.66;5070859;28;20569;-78
2023/05/03 04:13:52;;;;;;;15.23;8.53;;;;;;;7.27;100.00;98967.81;5071122;28;20209;-77
2023/05/03 04:16:20;;;;;;;14.40;8.77;;;;;;;7.31;100.00;98966.78;5071001;28;20210;-77
2023/05/03 04:18:46;;;;;;;14.93;9.23;;;;;;;7.28;100.00;98966.91;5070880;28;20215;-77
2023/05/03 04:21:13;;;;;;;13.50;8.63;;;;;;;7.34;100.00;98979.81;5070471;28;20242;-78
2023/05/03 04:23:39;;;;;;;15.93;9.20;;;;;;;7.32;100.00;98979.00;5070676;28;20235;-77
2023/05/03 04:26:06;;;;;;;17.40;9.40;;;;;;;7.29;100.00;98985.22;5071090;28;20581;-77
2023/05/03 04:28:33;;;;;;;14.87;9.47;;;;;;;7.32;100.00;98979.88;5071250;28;20598;-77
2023/05/03 04:30:59;;;;;;;14.37;8.60;;;;;;;7.31;100.00;98982.56;5070648;28;20234;-77
2023/05/03 04:33:27;;;;;;;13.20;8.27;;;;;;;7.31;100.00;98990.44;5070853;28;20223;-77
2023/05/03 04:35:54;;;;;;;12.77;8.20;;;;;;;7.39;100.00;98983.94;5070621;28;20620;-77
2023/05/03 04:38:21;;;;;;;15.30;8.53;;;;;;;7.42;100.00;98982.94;5070697;28;20556;-77
2023/05/03 04:40:47;;;;;;;15.30;9.13;;;;;;;7.49;100.00;98984.38;5070520;28;20317;-77
2023/05/03 04:43:14;;;;;;;13.67;8.70;;;;;;;7.46;100.00;98990.63;5070679;28;20596;-77
2023/05/03 04:45:41;;;;;;;13.83;8.73;;;;;;;7.44;100.00;98986.34;5070584;28;20210;-77
2023/05/03 04:48:08;;;;;;;12.43;8.33;;;;;;;7.50;100.00;98980.84;5070718;28;20227;-77
2023/05/03 04:50:35;;;;;;;15.03;9.20;;;;;;;7.48;100.00;98993.22;5070153;28;20242;-77
2023/05/03 04:53:02;;;;;;;13.97;8.40;;;;;;;7.45;100.00;98986.31;5070807;28;20215;-77
2023/05/03 04:55:29;;;;;;;13.03;8.90;;;;;;;7.53;100.00;98988.59;5070601;28;20626;-77
2023/05/03 04:57:56;;;;;;;14.60;8.53;;;;;;;7.55;100.00;98992.00;5070950;28;20208;-77
2023/05/03 05:00:23;;;;;;;16.13;8.80;;;;;;;7.61;100.00;98983.84;5070121;28;20298;-77
2023/05/03 05:02:50;;;;;;;12.60;7.93;;;;;;;7.71;100.00;98995.69;5070433;28;20651;-77
2023/05/03 05:05:17;;;;;;;12.63;8.67;;;;;;;7.70;100.00;98994.81;5070306;28;20209;-77
2023/05/03 05:07:45;;;;;;;12.47;8.33;;;;;;;7.86;100.00;98997.63;5070790;28;20212;-77
2023/05/03 05:10:13;;;;;;;14.27;8.53;;;;;;;7.86;100.00;98995.88;5071548;28;20228;-77
2023/05/03 05:12:40;;;;;;;15.20;7.90;;;;;;;7.93;100.00;98997.28;5074316;28;20219;-77
2023/05/03 05:15:07;;;;;;;13.63;8.97;;;;;;;8.02;100.00;98996.03;5074012;28;20261;-77
2023/05/03 05:17:34;;;;;;;14.53;8.83;;;;;;;8.12;100.00;98997.28;5074100;28;20437;-77
2023/05/03 05:20:01;;;;;;;13.60;7.97;;;;;;;8.14;100.00;99006.00;5073511;28;20302;-77
2023/05/03 05:22:27;;;;;;;11.80;8.30;;;;;;;8.27;100.00;98999.28;5074127;28;20298;-77
2023/05/03 05:24:55;;;;;;;14.17;8.70;;;;;;;8.35;100.00;98999.78;5073836;28;20318;-77
2023/05/03 05:27:22;;;;;;;14.10;8.73;;;;;;;8.37;100.00;98990.00;5073987;28;20273;-77
2023/05/03 05:29:48;;;;;;;13.07;8.10;;;;;;;8.44;100.00;98999.34;5073458;28;20218;-77
2023/05/03 05:32:15;;;;;;;13.97;8.23;;;;;;;8.53;100.00;98998.91;5073639;28;20214;-77
2023/05/03 05:34:42;;;;;;;12.73;8.27;;;;;;;8.65;100.00;98995.69;5073842;28;20578;-77
2023/05/03 05:37:09;;;;;;;15.73;9.17;;;;;;;8.85;100.00;98998.22;5073717;28;20209;-77
2023/05/03 05:39:35;;;;;;;13.27;8.63;;;;;;;9.05;100.00;99003.38;5073177;28;20669;-77
2023/05/03 05:42:03;;;;;;;14.87;9.37;;;;;;;9.42;100.00;98997.97;5073666;28;20230;-77
2023/05/03 05:44:30;;;;;;;11.77;7.37;;;;;;;9.86;100.00;98994.72;5073937;28;20336;-77
2023/05/03 05:46:57;;;;;;;12.03;8.17;;;;;;;10.44;100.00;98989.81;5073216;28;20299;-77
2023/05/03 05:49:23;;;;;;;12.10;7.80;;;;;;;10.85;100.00;98983.06;5073016;28;20677;-76
2023/05/03 05:51:50;;;;;;;12.27;8.13;;;;;;;11.18;95.63;98971.41;5073138;28;20327;-77
2023/05/03 05:54:16;;;;;;;11.33;7.47;;;;;;;11.48;93.11;98971.38;5073446;28;20217;-77
2023/05/03 05:56:43;;;;;;;11.00;7.70;;;;;;;11.74;89.95;98958.31;5073242;28;20310;-78
2023/05/03 05:59:11;;;;;;;13.90;7.77;;;;;;;11.94;87.52;98962.41;5072792;28;20219;-79
2023/05/03 06:01:40;;;;;;;12.10;7.70;;;;;;;12.21;85.74;98961.56;5073039;28;20717;-79
2023/05/03 06:04:07;;;;;;;12.57;7.47;;;;;;;12.40;85.14;98956.78;5073166;28;20231;-79
2023/05/03 06:06:33;;;;;;;12.00;7.60;;;;;;;12.69;84.49;98954.91;5073299;28;20263;-78
2023/05/03 06:08:59;;;;;;;10.87;7.10;;;;;;;12.90;81.73;98951.72;5073198;28;20210;-79
2023/05/03 06:11:26;;;;;;;10.10;7.53;;;;;;;13.00;81.66;98954.66;5073199;28;20711;-84
2023/05/03 06:13:53;;;;;;;10.97;7.27;;;;;;;13.33;80.96;98952.41;5073050;28;20211;-78
2023/05/03 06:16:21;;;;;;;12.20;7.97;;;;;;;13.24;77.23;98932.66;5072827;28;20217;-79
2023/05/03 06:18:47;;;;;;;9.07;6.93;;;;;;;13.33;78.41;98939.16;5072986;28;20212;-79
2023/05/03 06:21:14;;;;;;;8.93;7.47;;;;;;;13.53;79.68;98952.78;5072310;28;20318;-78
2023/05/03 06:23:41;;;;;;;11.03;7.53;;;;;;;13.80;77.94;98944.69;5072759;28;20599;-78
2023/05/03 06:26:07;;;;;;;10.27;7.03;;;;;;;13.98;75.31;98938.97;5072678;28;20298;-79
2023/05/03 06:28:34;;;;;;;9.13;7.30;;;;;;;13.94;75.75;98944.59;5072537;28;20208;-78
2023/05/03 06:31:01;;;;;;;10.50;7.20;;;;;;;13.91;76.67;98948.31;5072127;28;20237;-78
2023/05/03 06:33:29;;;;;;;11.90;7.57;;;;;;;13.81;78.10;98957.06;5072686;28;20209;-79
2023/05/03 06:35:55;;;;;;;11.77;7.43;;;;;;;13.37;79.46;98962.72;5072401;28;20275;-79
2023/05/03 06:38:22;;;;;;;9.77;7.07;;;;;;;12.86;82.38;98978.56;5072635;28;20359;-79
2023/05/03 06:40:50;;;;;;;9.03;7.07;;;;;;;12.49;85.51;98987.19;5072238;28;20233;-79
2023/05/03 06:43:16;;;;;;;10.53;7.13;;;;;;;12.16;87.62;98990.13;5072019;28;20638;-79
2023/05/03 06:45:43;;;;;;;12.50;8.13;;;;;;;11.99;90.80;98992.13;5072474;28;20205;-78
2023/05/03 06:48:10;;;;;;;10.97;7.87;;;;;;;11.94;92.04;98992.41;5072249;28;20204;-79
2023/05/03 06:50:38;;;;;;;10.37;7.73;;;;;;;11.96;91.97;98994.94;5071613;28;20233;-79
2023/05/03 06:53:05;;;;;;;12.37;7.87;;;;;;;11.97;92.38;98988.69;5072130;28;20203;-76
2023/05/03 06:55:32;;;;;;;13.48;8.90;;;;;;;11.97;90.80;98986.06;5069677;28;20805;-76
2023/05/03 06:58:00;;;;;;;10.37;8.03;;;;;;;11.98;90.51;98980.66;5070128;28;20660;-77
2023/05/03 07:00:27;;;;;;;11.83;8.20;;;;;;;12.04;90.22;98982.09;5070578;28;20227;-76
2023/05/03 07:02:53;;;;;;;11.17;7.40;;;;;;;12.05;89.94;98975.84;5071237;28;20215;-77
2023/05/03 07:05:20;;;;;;;13.50;8.63;;;;;;;12.01;91.55;98985.78;5070681;28;20225;-77
2023/05/03 07:07:47;;;;;;;13.90;8.47;;;;;;;12.02;90.51;98976.03;5071076;28;20302;-77
2023/05/03 07:10:14;;;;;;;11.93;8.47;;;;;;;11.97;89.64;98970.16;5070748;28;20235;-76
2023/05/03 07:12:40;;;;;;;12.20;7.93;;;;;;;11.89;89.90;98965.34;5071103;28;20224;-76
2023/05/03 07:15:08;;;;;;;11.53;7.63;;;;;;;11.79;92.91;98974.78;5070750;28;20936;-76
2023/05/03 07:17:34;;;;;;;11.90;7.93;;;;;;;11.86;93.82;98970.00;5071146;28;20204;-77
2023/05/03 07:20:01;;;;;;;12.63;8.63;;;;;;;11.98;93.75;98974.53;5070374;28;20241;-77
2023/05/03 07:22:27;;;;;;;12.23;8.23;;;;;;;12.02;91.88;98960.13;5070997;28;20211;-77
2023/05/03 07:24:58;;;;;;;9.60;7.67;;;;;;;12.12;94.73;98967.44;5070365;28;20231;-77
2023/05/03 07:27:24;;;;;;;12.47;8.67;;;;;;;12.29;96.43;98969.88;5070821;28;20306;-77
2023/05/03 07:29:51;;;;;;;12.83;7.80;;;;;;;12.44;97.05;98962.75;5070506;28;20218;-77
2023/05/03 07:32:17;;;;;;;12.13;8.70;;;;;;;12.61;94.00;98954.56;5069979;28;20207;-77
2023/05/03 07:34:44;;;;;;;11.70;8.57;;;;;;;12.68;90.09;98945.25;5070570;28;20533;-77
2023/05/03 07:37:11;;;;;;;10.40;8.17;;;;;;;12.61;90.40;98949.25;5070927;28;20222;-77
2023/05/03 07:39:37;;;;;;;13.97;8.60;;;;;;;12.73;90.59;98949.34;5070244;28;20212;-77
2023/05/03 07:42:06;;;;;;;12.70;8.43;;;;;;;12.80;89.56;98952.44;5070440;28;20713;-77
2023/05/03 07:44:32;;;;;;;11.07;8.03;;;;;;;12.95;91.75;98954.09;5070615;28;20652;-77
2023/05/03 07:46:59;;;;;;;12.90;8.60;;;;;;;13.13;93.22;98958.19;5070618;28;20217;-77
2023/05/03 07:49:25;;;;;;;12.87;8.07;;;;;;;13.24;92.93;98955.69;5070515;28;20208;-76
2023/05/03 07:51:53;;;;;;;12.87;8.23;;;;;;;13.42;92.84;98960.63;5070304;28;20326;-76
2023/05/03 07:54:19;;;;;;;11.50;8.13;;;;;;;13.51;83.77;98920.16;5070356;28;20679;-76
2023/05/03 07:56:46;;;;;;;12.93;8.43;;;;;;;13.48;80.42;98911.53;5070386;28;20710;-77
2023/05/03 07:59:13;;;;;;;11.33;8.90;;;;;;;13.47;79.57;98916.00;5070900;28;20212;-80
2023/05/03 08:01:40;;;;;;;10.67;7.00;;;;;;;13.38;81.05;98921.09;5070245;28;20653;-83
2023/05/03 08:04:07;;;;;;;12.73;8.10;;;;;;;13.39;81.82;98922.81;5070299;28;20241;-82
2023/05/03 08:06:34;;;;;;;11.07;8.30;;;;;;;13.54;82.52;98935.88;5071076;28;20629;-82
2023/05/03 08:09:01;;;;;;;11.77;8.13;;;;;;;13.62;82.90;98925.56;5071373;28;20222;-82
2023/05/03 08:11:28;;;;;;;11.27;8.00;;;;;;;13.80;80.82;98915.47;5071118;28;20242;-78
2023/05/03 08:13:55;;;;;;;10.67;7.87;;;;;;;13.81;80.78;98914.53;5071189;28;20599;-78
2023/05/03 08:16:22;;;;;;;10.20;8.10;;;;;;;13.98;81.01;98924.81;5071113;28;20215;-80
2023/05/03 08:18:49;;;;;;;9.47;7.60;;;;;;;14.21;80.53;98924.06;5070856;28;20627;-80
2023/05/03 08:21:16;;;;;;;10.90;7.90;;;;;;;14.41;77.83;98910.19;5070320;28;20255;-80
2023/05/03 08:23:43;;;;;;;11.53;8.23;;;;;;;14.50;75.75;98898.91;5071046;28;20213;-80
2023/05/03 08:26:12;;;;;;;11.00;8.57;;;;;;;14.56;75.00;98893.13;5070806;28;20241;-80
2023/05/03 08:28:39;;;;;;;13.97;8.20;;;;;;;14.66;78.98;98918.13;5070724;28;20308;-80
2023/05/03 08:31:06;;;;;;;11.80;8.57;;;;;;;14.96;80.53;98935.31;5070768;28;20230;-80
2023/05/03 08:33:34;;;;;;;11.30;8.30;;;;;;;15.23;79.27;98927.94;5070645;28;20327;-80
2023/05/03 08:36:00;;;;;;;9.97;7.33;;;;;;;15.45;75.90;98913.88;5070910;28;20206;-80
2023/05/03 08:38:27;;;;;;;11.43;8.07;;;;;;;15.47;70.70;98882.63;5071059;28;20626;-80
2023/05/03 08:40:57;;;;;;;9.07;7.70;;;;;;;15.61;70.34;98887.72;5070241;28;20234;-80
2023/05/03 08:43:27;;;;;;;9.23;7.83;;;;;;;15.62;71.62;98895.63;5070894;28;20608;-80
2023/05/03 08:45:54;;;;;;;11.73;8.07;;;;;;;15.43;71.18;98891.81;5074482;28;20231;-80
2023/05/03 08:48:21;;;;;;;10.40;8.17;;;;;;;15.31;71.31;98898.03;5074640;28;20211;-80
2023/05/03 08:50:52;;;;;;;10.97;7.70;;;;;;;15.34;70.99;98903.19;5084441;22;20261;-88
2023/05/03 08:53:19;;;;;;;10.33;7.70;;;;;;;15.34;71.29;98900.53;5054919;28;20210;-87
2023/05/03 08:55:45;;;;;;;11.93;8.47;;;;;;;15.30;72.25;98913.19;5054883;28;20593;-87
2023/05/03 08:58:12;;;;;;;11.27;9.27;;;;;;;15.19;71.55;98904.31;5054573;28;20207;-87
2023/05/03 09:00:40;;;;;;;11.67;8.87;;;;;;;14.88;71.93;98900.44;5053991;28;20237;-87
2023/05/03 09:03:07;;;;;;;15.60;8.50;;;;;;;14.90;72.59;98919.81;5054973;28;20212;-87
2023/05/03 09:05:37;;;;;;;10.83;8.73;;;;;;;14.83;72.39;98917.69;5054435;28;20725;-80
2023/05/03 09:08:07;;;;;;;10.73;7.47;;;;;;;15.00;73.18;98922.63;5054860;28;20211;-91
2023/05/03 09:10:36;;;;;;;10.67;8.20;;;;;;;15.18;73.36;98926.56;5054469;28;20285;-91
2023/05/03 09:13:03;;;;;;;10.47;7.93;;;;;;;15.50;73.96;98930.34;5054432;28;20208;-90
2023/05/03 09:15:30;;;;;;;14.83;9.27;;;;;;;15.81;74.95;98935.00;5054309;28;20213;-91
2023/05/03 09:18:11;;;;;;;11.53;8.90;;;;;;;16.07;76.97;98947.19;5054744;28;20221;-91
2023/05/03 09:20:39;;;;;;;10.37;8.30;;;;;;;16.20;74.65;98932.72;5053918;28;20276;-90
2023/05/03 09:23:08;;;;;;;12.63;9.13;;;;;;;16.34;76.21;98937.84;5054080;28;20251;-91
2023/05/03 09:25:43;;;;;;;10.73;8.13;;;;;;;16.33;69.88;98902.28;5054186;28;20602;-90
2023/05/03 09:28:09;;;;;;;9.87;8.17;;;;;;;16.23;71.01;98905.81;5054234;28;20218;-91
2023/05/03 09:30:36;;;;;;;9.73;7.97;;;;;;;16.30;71.63;98912.38;5053959;28;20285;-90
2023/05/03 09:33:03;;;;;;;9.90;8.20;;;;;;;16.50;72.40;98909.84;5054091;28;20204;-85
2023/05/03 09:35:31;;;;;;;9.00;7.57;;;;;;;16.66;72.80;98910.28;5054475;28;20208;-86
2023/05/03 09:37:57;;;;;;;11.03;8.07;;;;;;;16.86;67.25;98880.13;5053989;28;20377;-85
2023/05/03 09:40:25;;;;;;;10.17;7.77;;;;;;;16.69;65.46;98867.31;5053799;28;20579;-82
2023/05/03 09:43:13;;;;;;;11.60;8.30;;;;;;;16.71;66.07;98872.53;5053770;28;20208;-82
2023/05/03 09:45:40;;;;;;;9.17;8.00;;;;;;;16.69;65.33;98878.00;5053431;28;20232;-82
2023/05/03 09:48:07;;;;;;;9.47;8.27;;;;;;;16.65;69.25;98900.56;5053695;28;20214;-82
2023/05/03 09:50:35;;;;;;;8.97;7.63;;;;;;;16.56;65.13;98861.28;5053095;28;20224;-82
2023/05/03 09:53:03;;;;;;;12.07;8.17;;;;;;;16.34;68.00;98879.97;5053531;28;20212;-82
2023/05/03 09:55:35;;;;;;;9.50;8.33;;;;;;;16.26;68.57;98885.09;5052810;28;20200;-82
2023/05/03 09:58:05;;;;;;;10.07;7.83;;;;;;;16.25;68.60;98886.06;5053436;28;20675;-82
2023/05/03 10:00:35;;;;;;;10.03;8.03;;;;;;;16.23;69.89;98885.34;5053312;28;20228;-82
2023/05/03 10:03:08;;;;;;;9.63;7.97;;;;;;;16.31;67.85;98879.38;5053392;28;20212;-82
2023/05/03 10:05:40;;;;;;;10.17;7.73;;;;;;;16.33;71.03;98896.97;5053346;28;20329;-82
2023/05/03 10:08:07;;;;;;;9.90;8.17;;;;;;;16.45;76.44;98922.69;5053859;28;20568;-82
2023/05/03 10:10:36;;;;;;;9.77;7.67;;;;;;;16.65;75.89;98921.91;5053253;28;20235;-82
2023/05/03 10:13:03;;;;;;;9.80;8.00;;;;;;;16.88;71.75;98894.19;5053516;28;20215;-82
2023/05/03 10:15:31;;;;;;;7.63;6.83;;;;;;;17.10;67.83;98866.53;5053393;28;20607;-82
2023/05/03 10:18:02;;;;;;;8.10;6.70;;;;;;;17.36;72.14;98895.44;5053698;28;20204;-82
2023/05/03 10:20:35;;;;;;;9.43;7.13;;;;;;;17.50;69.87;98886.28;5052914;28;20239;-82
2023/05/03 10:23:12;;;;;;;9.13;6.87;;;;;;;17.60;67.92;98872.00;5053443;28;20208;-86
2023/05/03 10:26:13;;;;;;;7.87;6.87;;;;;;;17.63;66.92;98868.22;5053078;28;20304;-81
2023/05/03 10:28:40;;;;;;;8.57;7.07;;;;;;;17.71;68.68;98882.63;5053143;28;20228;-84
2023/05/03 10:31:06;;;;;;;10.17;7.47;;;;;;;17.86;68.54;98870.59;5052777;28;20243;-82
2023/05/03 10:33:33;;;;;;;10.07;7.50;;;;;;;17.98;68.24;98872.19;5052718;28;20210;-84
2023/05/03 10:36:05;;;;;;;7.87;6.83;;;;;;;18.11;69.99;98886.19;5053007;28;20236;-82
2023/05/03 10:38:32;;;;;;;7.37;6.43;;;;;;;18.09;63.92;98837.31;5052609;28;20219;-79
2023/05/03 10:41:02;;;;;;;7.10;6.40;;;;;;;18.04;57.90;98791.41;5052201;28;20239;-84
2023/05/03 10:43:42;;;;;;;9.10;6.70;;;;;;;17.95;58.75;98802.06;5052763;28;20269;-84
2023/05/03 10:46:30;;;;;;;6.87;6.17;;;;;;;17.85;58.90;98796.69;5052698;28;20236;-82
2023/05/03 10:49:17;;;;;;;7.57;6.77;;;;;;;18.00;63.11;98838.16;5052412;28;20208;-82
2023/05/03 10:51:44;;;;;;;6.90;5.67;;;;;;;18.23;62.63;98838.78;5052260;28;20240;-81
2023/05/03 10:54:11;;;;;;;6.80;5.70;;;;;;;18.44;59.84;98810.97;5052991;28;20208;-81
2023/05/03 10:56:49;;;;;;;8.67;6.53;;;;;;;18.67;58.95;98807.06;5052301;28;20678;-81
2023/05/03 10:59:16;;;;;;;8.13;6.90;;;;;;;18.64;57.66;98801.97;5052327;28;20300;-81
2023/05/03 11:01:44;;;;;;;8.60;6.70;;;;;;;18.38;55.40;98767.84;5052215;28;20681;-81
2023/05/03 11:04:16;;;;;;;8.23;7.07;;;;;;;18.01;54.47;98748.03;5052419;28;20215;-81
2023/05/03 11:06:45;;;;;;;8.47;6.77;;;;;;;17.76;60.00;98812.69;5052366;28;20232;-83
2023/05/03 11:09:13;;;;;;;8.03;6.93;;;;;;;17.61;57.98;98785.47;5051418;28;20330;-83
2023/05/03 11:11:41;;;;;;;7.87;6.40;;;;;;;17.56;58.57;98789.53;5052044;28;20239;-83
2023/05/03 11:14:10;;;;;;;8.30;6.63;;;;;;;17.46;59.49;98791.31;5052111;28;20208;-83
2023/05/03 11:16:39;;;;;;;6.97;6.27;;;;;;;17.27;58.89;98786.69;5052353;28;20222;-83
2023/05/03 11:19:06;;;;;;;9.53;6.30;;;;;;;17.12;60.67;98801.34;5052547;28;20208;-83
2023/05/03 11:21:33;;;;;;;7.80;6.40;;;;;;;17.08;60.54;98797.22;5052100;28;20254;-83
2023/05/03 11:24:01;;;;;;;7.33;6.07;;;;;;;17.15;59.51;98779.72;5052154;28;20215;-83
2023/05/03 11:26:28;;;;;;;8.00;6.07;;;;;;;17.48;57.33;98755.44;5051812;28;20224;-83
2023/05/03 11:28:54;;;;;;;8.27;5.33;;;;;;;17.51;57.24;98754.34;5053315;28;20215;-83
2023/05/03 11:31:23;;;;;;;5.63;5.03;;;;;;;17.62;61.01;98794.34;5052449;28;20758;-84